sensor_id;sensor_type;location;lat;lon;timestamp;temperature;humidity
14053;DHT22;7101;51.600;7.310;2023-03-01T00:01:11;-0.60;99.90
14053;DHT22;7101;51.600;7.310;2023-03-01T00:03:39;-0.60;99.90
14053;DHT22;7101;51.600;7.310;2023-03-01T00:06:06;-0.60;99.90
14053;DHT22;7101;51.600;7.310;2023-03-01T00:08:34;-0.60;99.90
14053;DHT22;7101;51.600;7.310;2023-03-01T00:11:05;-0.60;99.90
14053;DHT22;7101;51.600;7.310;2023-03-01T00:13:33;-0.70;99.90
14053;DHT22;7101;51.600;7.310;2023-03-01T00:16:02;-0.70;99.90
14053;DHT22;7101;51.600;7.310;2023-03-01T00:18:29;-0.70;99.90
14053;DHT22;7101;51.600;7.310;2023-03-01T00:20:56;-0.80;99.90
14053;DHT22;7101;51.600;7.310;2023-03-01T00:23:23;-0.80;99.90
14053;DHT22;7101;51.600;7.310;2023-03-01T00:25:50;-0.80;99.90
14053;DHT22;7101;51.600;7.310;2023-03-01T00:28:19;-0.90;99.90
14053;DHT22;7101;51.600;7.310;2023-03-01T00:30:48;-0.90;99.90
14053;DHT22;7101;51.600;7.310;2023-03-01T00:33:15;-1.00;99.90
14053;DHT22;7101;51.600;7.310;2023-03-01T00:35:42;-1.00;99.90
14053;DHT22;7101;51.600;7.310;2023-03-01T00:38:08;-1.00;99.90
14053;DHT22;7101;51.600;7.310;2023-03-01T00:40:36;-1.10;99.90
14053;DHT22;7101;51.600;7.310;2023-03-01T00:43:04;-1.20;99.90
14053;DHT22;7101;51.600;7.310;2023-03-01T00:45:32;-1.30;99.90
14053;DHT22;7101;51.600;7.310;2023-03-01T00:48:00;-1.40;99.90
14053;DHT22;7101;51.600;7.310;2023-03-01T00:50:27;-1.50;99.90
14053;DHT22;7101;51.600;7.310;2023-03-01T00:52:55;-1.50;99.90
14053;DHT22;7101;51.600;7.310;2023-03-01T00:55:23;-1.60;99.90
14053;DHT22;7101;51.600;7.310;2023-03-01T00:57:50;-1.60;99.90
14053;DHT22;7101;51.600;7.310;2023-03-01T01:00:19;-1.70;99.90
14053;DHT22;7101;51.600;7.310;2023-03-01T01:02:48;-1.70;99.90
14053;DHT22;7101;51.600;7.310;2023-03-01T01:05:15;-1.70;99.90
14053;DHT22;7101;51.600;7.310;2023-03-01T01:07:46;-1.80;99.90
14053;DHT22;7101;51.600;7.310;2023-03-01T01:10:14;-1.80;99.90
14053;DHT22;7101;51.600;7.310;2023-03-01T01:12:44;-1.90;99.90
14053;DHT22;7101;51.600;7.310;2023-03-01T01:15:11;-1.90;99.90
14053;DHT22;7101;51.600;7.310;2023-03-01T01:17:39;-2.00;99.90
14053;DHT22;7101;51.600;7.310;2023-03-01T01:20:09;-2.00;99.90
14053;DHT22;7101;51.600;7.310;2023-03-01T01:22:36;-2.00;99.90
14053;DHT22;7101;51.600;7.310;2023-03-01T01:25:04;-2.00;99.90
14053;DHT22;7101;51.600;7.310;2023-03-01T01:27:31;-2.10;99.90
14053;DHT22;7101;51.600;7.310;2023-03-01T01:29:58;-2.20;99.90
14053;DHT22;7101;51.600;7.310;2023-03-01T01:32:24;-2.30;99.90
14053;DHT22;7101;51.600;7.310;2023-03-01T01:34:51;-2.30;99.90
14053;DHT22;7101;51.600;7.310;2023-03-01T01:37:20;-2.30;99.90
14053;DHT22;7101;51.600;7.310;2023-03-01T01:39:46;-2.20;99.90
14053;DHT22;7101;51.600;7.310;2023-03-01T01:42:15;-2.20;99.90
14053;DHT22;7101;51.600;7.310;2023-03-01T01:44:46;-2.30;99.90
14053;DHT22;7101;51.600;7.310;2023-03-01T01:47:15;-2.20;99.90
14053;DHT22;7101;51.600;7.310;2023-03-01T01:49:47;-2.20;99.90
14053;DHT22;7101;51.600;7.310;2023-03-01T01:52:19;-2.10;99.90
14053;DHT22;7101;51.600;7.310;2023-03-01T01:54:51;-2.00;99.90
14053;DHT22;7101;51.600;7.310;2023-03-01T01:57:23;-1.90;99.90
14053;DHT22;7101;51.600;7.310;2023-03-01T01:59:53;-1.80;99.90
14053;DHT22;7101;51.600;7.310;2023-03-01T02:02:22;-1.80;99.90
14053;DHT22;7101;51.600;7.310;2023-03-01T02:04:51;-1.90;99.90
14053;DHT22;7101;51.600;7.310;2023-03-01T02:07:22;-1.90;99.90
14053;DHT22;7101;51.600;7.310;2023-03-01T02:09:51;-2.00;99.90
14053;DHT22;7101;51.600;7.310;2023-03-01T02:12:22;-2.00;99.90
14053;DHT22;7101;51.600;7.310;2023-03-01T02:14:50;-2.00;99.90
14053;DHT22;7101;51.600;7.310;2023-03-01T02:17:18;-2.10;99.90
14053;DHT22;7101;51.600;7.310;2023-03-01T02:19:57;-2.20;99.90
14053;DHT22;7101;51.600;7.310;2023-03-01T02:22:30;-2.20;99.90
14053;DHT22;7101;51.600;7.310;2023-03-01T02:27:50;-2.30;99.90
14053;DHT22;7101;51.600;7.310;2023-03-01T02:30:22;-2.40;99.90
14053;DHT22;7101;51.600;7.310;2023-03-01T02:32:52;-2.40;99.90
14053;DHT22;7101;51.600;7.310;2023-03-01T02:35:21;-2.40;99.90
14053;DHT22;7101;51.600;7.310;2023-03-01T02:37:48;-2.50;99.90
14053;DHT22;7101;51.600;7.310;2023-03-01T02:40:17;-2.60;99.90
14053;DHT22;7101;51.600;7.310;2023-03-01T02:42:50;-2.70;99.90
14053;DHT22;7101;51.600;7.310;2023-03-01T02:45:18;-2.80;99.90
14053;DHT22;7101;51.600;7.310;2023-03-01T02:47:46;-2.80;99.90
14053;DHT22;7101;51.600;7.310;2023-03-01T02:53:03;-2.90;99.90
14053;DHT22;7101;51.600;7.310;2023-03-01T02:55:33;-3.00;99.90
14053;DHT22;7101;51.600;7.310;2023-03-01T02:58:02;-3.00;99.90
14053;DHT22;7101;51.600;7.310;2023-03-01T03:00:34;-3.00;99.90
14053;DHT22;7101;51.600;7.310;2023-03-01T03:03:07;-3.00;99.90
14053;DHT22;7101;51.600;7.310;2023-03-01T03:05:35;-2.90;99.90
14053;DHT22;7101;51.600;7.310;2023-03-01T03:08:03;-3.00;99.90
14053;DHT22;7101;51.600;7.310;2023-03-01T03:10:33;-3.00;99.90
14053;DHT22;7101;51.600;7.310;2023-03-01T03:13:00;-3.00;99.90
14053;DHT22;7101;51.600;7.310;2023-03-01T03:15:28;-3.10;99.90
14053;DHT22;7101;51.600;7.310;2023-03-01T03:17:55;-3.10;99.90
14053;DHT22;7101;51.600;7.310;2023-03-01T03:20:24;-3.20;99.90
14053;DHT22;7101;51.600;7.310;2023-03-01T03:22:53;-3.20;99.90
14053;DHT22;7101;51.600;7.310;2023-03-01T03:25:21;-3.10;99.90
14053;DHT22;7101;51.600;7.310;2023-03-01T03:27:49;-3.10;99.90
14053;DHT22;7101;51.600;7.310;2023-03-01T03:30:26;-3.00;99.90
14053;DHT22;7101;51.600;7.310;2023-03-01T03:32:53;-3.00;99.90
14053;DHT22;7101;51.600;7.310;2023-03-01T03:35:22;-3.00;99.90
14053;DHT22;7101;51.600;7.310;2023-03-01T03:37:50;-3.00;99.90
14053;DHT22;7101;51.600;7.310;2023-03-01T03:40:31;-2.80;99.90
14053;DHT22;7101;51.600;7.310;2023-03-01T03:42:59;-2.80;99.90
14053;DHT22;7101;51.600;7.310;2023-03-01T03:45:27;-2.80;99.90
14053;DHT22;7101;51.600;7.310;2023-03-01T03:47:54;-2.90;99.90
14053;DHT22;7101;51.600;7.310;2023-03-01T03:50:21;-3.00;99.90
14053;DHT22;7101;51.600;7.310;2023-03-01T03:52:48;-3.10;99.90
14053;DHT22;7101;51.600;7.310;2023-03-01T03:55:16;-3.20;99.90
14053;DHT22;7101;51.600;7.310;2023-03-01T03:57:46;-3.20;99.90
14053;DHT22;7101;51.600;7.310;2023-03-01T04:00:18;-3.30;99.90
14053;DHT22;7101;51.600;7.310;2023-03-01T04:02:51;-3.30;99.90
14053;DHT22;7101;51.600;7.310;2023-03-01T04:05:24;-3.30;99.90
14053;DHT22;7101;51.600;7.310;2023-03-01T04:07:52;-3.40;99.90
14053;DHT22;7101;51.600;7.310;2023-03-01T04:10:27;-3.30;99.90
14053;DHT22;7101;51.600;7.310;2023-03-01T04:12:54;-3.40;99.90
14053;DHT22;7101;51.600;7.310;2023-03-01T04:15:23;-3.30;99.90
14053;DHT22;7101;51.600;7.310;2023-03-01T04:17:54;-3.30;99.90
14053;DHT22;7101;51.600;7.310;2023-03-01T04:20:23;-3.30;99.90
14053;DHT22;7101;51.600;7.310;2023-03-01T04:22:51;-3.40;99.90
14053;DHT22;7101;51.600;7.310;2023-03-01T04:25:19;-3.40;99.90
14053;DHT22;7101;51.600;7.310;2023-03-01T04:27:45;-3.40;99.90
14053;DHT22;7101;51.600;7.310;2023-03-01T04:30:13;-3.40;99.90
14053;DHT22;7101;51.600;7.310;2023-03-01T04:32:40;-3.20;99.90
14053;DHT22;7101;51.600;7.310;2023-03-01T04:35:08;-3.00;99.90
14053;DHT22;7101;51.600;7.310;2023-03-01T04:37:35;-2.90;99.90
14053;DHT22;7101;51.600;7.310;2023-03-01T04:40:03;-2.80;99.90
14053;DHT22;7101;51.600;7.310;2023-03-01T04:42:38;-2.90;99.90
14053;DHT22;7101;51.600;7.310;2023-03-01T04:45:06;-2.80;99.90
14053;DHT22;7101;51.600;7.310;2023-03-01T04:47:39;-2.70;99.90
14053;DHT22;7101;51.600;7.310;2023-03-01T04:50:09;-2.70;99.90
14053;DHT22;7101;51.600;7.310;2023-03-01T04:52:36;-2.60;99.90
14053;DHT22;7101;51.600;7.310;2023-03-01T04:55:04;-2.40;99.90
14053;DHT22;7101;51.600;7.310;2023-03-01T04:57:32;-2.50;99.90
14053;DHT22;7101;51.600;7.310;2023-03-01T04:59:59;-2.60;99.90
14053;DHT22;7101;51.600;7.310;2023-03-01T05:02:26;-2.60;99.90
14053;DHT22;7101;51.600;7.310;2023-03-01T05:04:53;-2.70;99.90
14053;DHT22;7101;51.600;7.310;2023-03-01T05:07:24;-2.90;99.90
14053;DHT22;7101;51.600;7.310;2023-03-01T05:09:51;-3.00;99.90
14053;DHT22;7101;51.600;7.310;2023-03-01T05:12:20;-2.90;99.90
14053;DHT22;7101;51.600;7.310;2023-03-01T05:14:46;-3.00;99.90
14053;DHT22;7101;51.600;7.310;2023-03-01T05:17:13;-3.00;99.90
14053;DHT22;7101;51.600;7.310;2023-03-01T05:19:40;-3.10;99.90
14053;DHT22;7101;51.600;7.310;2023-03-01T05:22:08;-3.10;99.90
14053;DHT22;7101;51.600;7.310;2023-03-01T05:24:36;-3.10;99.90
14053;DHT22;7101;51.600;7.310;2023-03-01T05:27:04;-3.10;99.90
14053;DHT22;7101;51.600;7.310;2023-03-01T05:29:32;-3.10;99.90
14053;DHT22;7101;51.600;7.310;2023-03-01T05:32:01;-3.20;99.90
14053;DHT22;7101;51.600;7.310;2023-03-01T05:34:30;-3.30;99.90
14053;DHT22;7101;51.600;7.310;2023-03-01T05:36:58;-3.30;99.90
14053;DHT22;7101;51.600;7.310;2023-03-01T05:39:27;-3.30;99.90
14053;DHT22;7101;51.600;7.310;2023-03-01T05:41:56;-3.30;99.90
14053;DHT22;7101;51.600;7.310;2023-03-01T05:44:24;-3.30;99.90
14053;DHT22;7101;51.600;7.310;2023-03-01T05:46:52;-3.30;99.90
14053;DHT22;7101;51.600;7.310;2023-03-01T05:49:19;-3.40;99.90
14053;DHT22;7101;51.600;7.310;2023-03-01T05:51:49;-3.50;99.90
14053;DHT22;7101;51.600;7.310;2023-03-01T05:54:17;-3.50;99.90
14053;DHT22;7101;51.600;7.310;2023-03-01T05:56:44;-3.40;99.90
14053;DHT22;7101;51.600;7.310;2023-03-01T05:59:12;-3.40;99.90
14053;DHT22;7101;51.600;7.310;2023-03-01T06:01:42;-3.30;99.90
14053;DHT22;7101;51.600;7.310;2023-03-01T06:04:09;-3.20;99.90
14053;DHT22;7101;51.600;7.310;2023-03-01T06:06:37;-3.00;99.90
14053;DHT22;7101;51.600;7.310;2023-03-01T06:09:05;-3.00;99.90
14053;DHT22;7101;51.600;7.310;2023-03-01T06:11:33;-3.10;99.90
14053;DHT22;7101;51.600;7.310;2023-03-01T06:14:00;-3.10;99.90
14053;DHT22;7101;51.600;7.310;2023-03-01T06:16:28;-3.20;99.90
14053;DHT22;7101;51.600;7.310;2023-03-01T06:18:55;-3.00;99.90
14053;DHT22;7101;51.600;7.310;2023-03-01T06:21:22;-2.90;99.90
14053;DHT22;7101;51.600;7.310;2023-03-01T06:23:49;-2.80;99.90
14053;DHT22;7101;51.600;7.310;2023-03-01T06:26:17;-2.80;99.90
14053;DHT22;7101;51.600;7.310;2023-03-01T06:28:44;-2.80;99.90
14053;DHT22;7101;51.600;7.310;2023-03-01T06:31:12;-2.70;99.90
14053;DHT22;7101;51.600;7.310;2023-03-01T06:33:40;-2.80;99.90
14053;DHT22;7101;51.600;7.310;2023-03-01T06:36:08;-2.80;99.90
14053;DHT22;7101;51.600;7.310;2023-03-01T06:38:35;-2.80;99.90
14053;DHT22;7101;51.600;7.310;2023-03-01T06:41:05;-2.80;99.90
14053;DHT22;7101;51.600;7.310;2023-03-01T06:43:32;-2.80;99.90
14053;DHT22;7101;51.600;7.310;2023-03-01T06:45:59;-2.80;99.90
14053;DHT22;7101;51.600;7.310;2023-03-01T06:48:26;-2.80;99.90
14053;DHT22;7101;51.600;7.310;2023-03-01T06:50:58;-2.80;99.90
14053;DHT22;7101;51.600;7.310;2023-03-01T06:53:24;-2.70;99.90
14053;DHT22;7101;51.600;7.310;2023-03-01T06:55:54;-2.60;99.90
14053;DHT22;7101;51.600;7.310;2023-03-01T06:58:21;-2.50;99.90
14053;DHT22;7101;51.600;7.310;2023-03-01T07:00:48;-2.40;99.90
14053;DHT22;7101;51.600;7.310;2023-03-01T07:03:15;-2.50;99.90
14053;DHT22;7101;51.600;7.310;2023-03-01T07:05:42;-2.40;99.90
14053;DHT22;7101;51.600;7.310;2023-03-01T07:08:12;-2.40;99.90
14053;DHT22;7101;51.600;7.310;2023-03-01T07:10:39;-1.80;99.90
14053;DHT22;7101;51.600;7.310;2023-03-01T07:13:06;-0.90;99.90
14053;DHT22;7101;51.600;7.310;2023-03-01T07:15:33;0.20;99.90
14053;DHT22;7101;51.600;7.310;2023-03-01T07:18:02;1.30;99.90
14053;DHT22;7101;51.600;7.310;2023-03-01T07:20:29;2.10;99.90
14053;DHT22;7101;51.600;7.310;2023-03-01T07:22:56;2.80;99.90
14053;DHT22;7101;51.600;7.310;2023-03-01T07:25:28;3.00;99.90
14053;DHT22;7101;51.600;7.310;2023-03-01T07:27:55;3.10;99.90
14053;DHT22;7101;51.600;7.310;2023-03-01T07:30:26;3.60;99.90
14053;DHT22;7101;51.600;7.310;2023-03-01T07:32:54;3.80;99.90
14053;DHT22;7101;51.600;7.310;2023-03-01T07:35:25;4.30;99.90
14053;DHT22;7101;51.600;7.310;2023-03-01T07:37:58;4.20;99.90
14053;DHT22;7101;51.600;7.310;2023-03-01T07:40:29;3.80;99.90
14053;DHT22;7101;51.600;7.310;2023-03-01T07:42:58;3.70;99.90
14053;DHT22;7101;51.600;7.310;2023-03-01T07:45:27;3.80;99.90
14053;DHT22;7101;51.600;7.310;2023-03-01T07:47:55;3.30;99.90
14053;DHT22;7101;51.600;7.310;2023-03-01T07:50:23;3.20;99.90
14053;DHT22;7101;51.600;7.310;2023-03-01T07:52:51;3.30;99.90
14053;DHT22;7101;51.600;7.310;2023-03-01T07:55:18;3.30;99.90
14053;DHT22;7101;51.600;7.310;2023-03-01T07:57:48;3.60;99.90
14053;DHT22;7101;51.600;7.310;2023-03-01T08:00:15;4.00;99.90
14053;DHT22;7101;51.600;7.310;2023-03-01T08:02:42;3.80;99.90
14053;DHT22;7101;51.600;7.310;2023-03-01T08:05:10;3.60;99.90
14053;DHT22;7101;51.600;7.310;2023-03-01T08:07:37;3.10;99.90
14053;DHT22;7101;51.600;7.310;2023-03-01T08:10:06;2.90;99.90
14053;DHT22;7101;51.600;7.310;2023-03-01T08:12:34;2.70;99.90
14053;DHT22;7101;51.600;7.310;2023-03-01T08:15:03;2.40;99.90
14053;DHT22;7101;51.600;7.310;2023-03-01T08:17:31;1.90;99.90
14053;DHT22;7101;51.600;7.310;2023-03-01T08:19:58;1.60;99.90
14053;DHT22;7101;51.600;7.310;2023-03-01T08:22:26;1.30;99.90
14053;DHT22;7101;51.600;7.310;2023-03-01T08:24:53;1.10;99.90
14053;DHT22;7101;51.600;7.310;2023-03-01T08:27:21;0.90;99.90
14053;DHT22;7101;51.600;7.310;2023-03-01T08:29:53;0.80;99.90
14053;DHT22;7101;51.600;7.310;2023-03-01T08:32:23;0.70;99.90
14053;DHT22;7101;51.600;7.310;2023-03-01T08:35:01;0.70;99.90
14053;DHT22;7101;51.600;7.310;2023-03-01T08:37:29;0.90;99.90
14053;DHT22;7101;51.600;7.310;2023-03-01T08:40:01;0.90;99.90
14053;DHT22;7101;51.600;7.310;2023-03-01T08:42:40;1.10;99.90
14053;DHT22;7101;51.600;7.310;2023-03-01T08:45:10;1.10;99.90
14053;DHT22;7101;51.600;7.310;2023-03-01T08:47:38;1.00;99.90
14053;DHT22;7101;51.600;7.310;2023-03-01T08:50:08;1.20;99.90
14053;DHT22;7101;51.600;7.310;2023-03-01T08:52:35;1.30;99.90
14053;DHT22;7101;51.600;7.310;2023-03-01T08:55:03;1.40;99.90
14053;DHT22;7101;51.600;7.310;2023-03-01T08:57:30;1.40;99.90
14053;DHT22;7101;51.600;7.310;2023-03-01T08:59:57;1.50;99.90
14053;DHT22;7101;51.600;7.310;2023-03-01T09:02:26;1.50;99.90
14053;DHT22;7101;51.600;7.310;2023-03-01T09:04:54;1.60;99.90
14053;DHT22;7101;51.600;7.310;2023-03-01T09:07:21;1.70;99.90
14053;DHT22;7101;51.600;7.310;2023-03-01T09:09:54;1.80;99.90
14053;DHT22;7101;51.600;7.310;2023-03-01T09:12:21;1.90;99.90
14053;DHT22;7101;51.600;7.310;2023-03-01T09:14:47;2.00;99.90
14053;DHT22;7101;51.600;7.310;2023-03-01T09:17:15;2.00;99.90
14053;DHT22;7101;51.600;7.310;2023-03-01T09:19:44;2.20;99.90
14053;DHT22;7101;51.600;7.310;2023-03-01T09:22:12;2.40;99.90
14053;DHT22;7101;51.600;7.310;2023-03-01T09:24:46;2.50;99.90
14053;DHT22;7101;51.600;7.310;2023-03-01T09:27:13;2.50;99.90
14053;DHT22;7101;51.600;7.310;2023-03-01T09:29:44;2.60;99.90
14053;DHT22;7101;51.600;7.310;2023-03-01T09:32:11;2.50;99.90
14053;DHT22;7101;51.600;7.310;2023-03-01T09:34:37;2.60;99.90
14053;DHT22;7101;51.600;7.310;2023-03-01T09:37:22;2.80;99.90
14053;DHT22;7101;51.600;7.310;2023-03-01T09:39:50;2.80;99.90
14053;DHT22;7101;51.600;7.310;2023-03-01T09:42:18;2.80;99.90
14053;DHT22;7101;51.600;7.310;2023-03-01T09:44:49;2.80;99.90
14053;DHT22;7101;51.600;7.310;2023-03-01T09:47:20;2.90;99.90
14053;DHT22;7101;51.600;7.310;2023-03-01T09:49:55;3.00;99.90
14053;DHT22;7101;51.600;7.310;2023-03-01T09:52:30;3.00;99.90
14053;DHT22;7101;51.600;7.310;2023-03-01T09:55:00;3.20;99.90
14053;DHT22;7101;51.600;7.310;2023-03-01T09:57:33;3.40;99.90
14053;DHT22;7101;51.600;7.310;2023-03-01T10:00:20;3.40;99.90
14053;DHT22;7101;51.600;7.310;2023-03-01T10:02:54;3.50;99.90
14053;DHT22;7101;51.600;7.310;2023-03-01T10:05:37;3.60;99.90
14053;DHT22;7101;51.600;7.310;2023-03-01T10:08:26;3.40;99.90
14053;DHT22;7101;51.600;7.310;2023-03-01T10:10:58;3.70;99.90
14053;DHT22;7101;51.600;7.310;2023-03-01T10:13:29;3.80;99.90
14053;DHT22;7101;51.600;7.310;2023-03-01T10:16:03;3.60;99.90
14053;DHT22;7101;51.600;7.310;2023-03-01T10:18:33;3.70;99.90
14053;DHT22;7101;51.600;7.310;2023-03-01T10:21:13;3.70;99.90
14053;DHT22;7101;51.600;7.310;2023-03-01T10:23:42;3.60;99.90
14053;DHT22;7101;51.600;7.310;2023-03-01T10:26:34;3.70;99.90
14053;DHT22;7101;51.600;7.310;2023-03-01T10:29:04;3.60;99.90
14053;DHT22;7101;51.600;7.310;2023-03-01T10:31:41;3.60;99.90
14053;DHT22;7101;51.600;7.310;2023-03-01T10:34:14;3.80;99.90
14053;DHT22;7101;51.600;7.310;2023-03-01T10:36:43;3.80;99.90
14053;DHT22;7101;51.600;7.310;2023-03-01T10:39:15;3.90;99.90
14053;DHT22;7101;51.600;7.310;2023-03-01T10:41:56;3.90;99.90
14053;DHT22;7101;51.600;7.310;2023-03-01T10:44:41;4.20;99.90
14053;DHT22;7101;51.600;7.310;2023-03-01T10:47:21;4.30;99.90
14053;DHT22;7101;51.600;7.310;2023-03-01T10:49:59;4.30;99.90
14053;DHT22;7101;51.600;7.310;2023-03-01T10:52:34;4.20;99.90
14053;DHT22;7101;51.600;7.310;2023-03-01T10:55:24;4.20;99.90
14053;DHT22;7101;51.600;7.310;2023-03-01T10:58:07;4.30;99.90
14053;DHT22;7101;51.600;7.310;2023-03-01T11:00:46;4.30;99.90
14053;DHT22;7101;51.600;7.310;2023-03-01T11:03:19;4.30;99.90
14053;DHT22;7101;51.600;7.310;2023-03-01T11:05:56;4.40;99.90
14053;DHT22;7101;51.600;7.310;2023-03-01T11:08:42;4.30;99.90
14053;DHT22;7101;51.600;7.310;2023-03-01T11:11:18;4.40;99.90
14053;DHT22;7101;51.600;7.310;2023-03-01T11:13:56;4.30;99.90
14053;DHT22;7101;51.600;7.310;2023-03-01T11:16:26;4.50;99.90
14053;DHT22;7101;51.600;7.310;2023-03-01T11:21:47;4.70;99.90
14053;DHT22;7101;51.600;7.310;2023-03-01T11:24:19;4.60;99.90
14053;DHT22;7101;51.600;7.310;2023-03-01T11:26:54;4.60;99.90
14053;DHT22;7101;51.600;7.310;2023-03-01T11:29:27;4.60;99.90
14053;DHT22;7101;51.600;7.310;2023-03-01T11:31:59;4.70;99.90
14053;DHT22;7101;51.600;7.310;2023-03-01T11:34:36;4.80;99.90
14053;DHT22;7101;51.600;7.310;2023-03-01T11:37:15;4.80;99.90
14053;DHT22;7101;51.600;7.310;2023-03-01T11:39:47;5.00;99.90
14053;DHT22;7101;51.600;7.310;2023-03-01T11:42:22;4.90;99.90
14053;DHT22;7101;51.600;7.310;2023-03-01T11:44:55;4.90;99.90
14053;DHT22;7101;51.600;7.310;2023-03-01T11:47:38;4.90;98.80
14053;DHT22;7101;51.600;7.310;2023-03-01T11:50:24;5.00;99.90
14053;DHT22;7101;51.600;7.310;2023-03-01T11:53:01;5.00;97.20
14053;DHT22;7101;51.600;7.310;2023-03-01T11:55:48;5.10;97.40
14053;DHT22;7101;51.600;7.310;2023-03-01T11:58:34;5.00;98.30
14053;DHT22;7101;51.600;7.310;2023-03-01T12:01:17;5.20;99.20
14053;DHT22;7101;51.600;7.310;2023-03-01T12:04:00;5.30;99.90
14053;DHT22;7101;51.600;7.310;2023-03-01T12:06:41;5.30;97.50
14053;DHT22;7101;51.600;7.310;2023-03-01T12:09:32;5.30;98.20
14053;DHT22;7101;51.600;7.310;2023-03-01T12:12:19;5.30;96.20
14053;DHT22;7101;51.600;7.310;2023-03-01T12:20:58;5.30;96.00
14053;DHT22;7101;51.600;7.310;2023-03-01T12:26:33;5.40;96.50
14053;DHT22;7101;51.600;7.310;2023-03-01T12:29:18;5.50;97.40
14053;DHT22;7101;51.600;7.310;2023-03-01T12:32:28;5.50;94.60
14053;DHT22;7101;51.600;7.310;2023-03-01T12:35:28;5.60;95.30
14053;DHT22;7101;51.600;7.310;2023-03-01T12:38:06;5.60;96.10
14053;DHT22;7101;51.600;7.310;2023-03-01T12:41:01;5.60;96.30
14053;DHT22;7101;51.600;7.310;2023-03-01T12:43:44;5.60;98.50
14053;DHT22;7101;51.600;7.310;2023-03-01T12:46:25;5.80;97.10
14053;DHT22;7101;51.600;7.310;2023-03-01T12:49:05;5.60;94.80
14053;DHT22;7101;51.600;7.310;2023-03-01T12:51:35;5.70;95.80
14053;DHT22;7101;51.600;7.310;2023-03-01T12:54:14;5.80;96.80
14053;DHT22;7101;51.600;7.310;2023-03-01T12:56:43;5.80;96.00
14053;DHT22;7101;51.600;7.310;2023-03-01T12:59:22;5.80;96.30
14053;DHT22;7101;51.600;7.310;2023-03-01T13:01:56;5.70;93.70
14053;DHT22;7101;51.600;7.310;2023-03-01T13:04:37;5.70;95.90
14053;DHT22;7101;51.600;7.310;2023-03-01T13:07:23;5.70;93.50
14053;DHT22;7101;51.600;7.310;2023-03-01T13:10:00;5.70;93.70
14053;DHT22;7101;51.600;7.310;2023-03-01T13:12:52;5.80;94.30
14053;DHT22;7101;51.600;7.310;2023-03-01T13:15:32;5.70;94.10
14053;DHT22;7101;51.600;7.310;2023-03-01T13:18:01;5.70;94.00
14053;DHT22;7101;51.600;7.310;2023-03-01T13:20:33;5.80;94.10
14053;DHT22;7101;51.600;7.310;2023-03-01T13:23:07;5.70;94.90
14053;DHT22;7101;51.600;7.310;2023-03-01T13:26:04;5.80;94.20
14053;DHT22;7101;51.600;7.310;2023-03-01T13:28:59;5.80;94.00
14053;DHT22;7101;51.600;7.310;2023-03-01T13:31:59;5.80;93.70
14053;DHT22;7101;51.600;7.310;2023-03-01T13:37:33;5.90;94.40
14053;DHT22;7101;51.600;7.310;2023-03-01T13:43:34;6.00;92.60
14053;DHT22;7101;51.600;7.310;2023-03-01T13:46:07;5.80;94.30
14053;DHT22;7101;51.600;7.310;2023-03-01T13:48:37;5.90;94.70
14053;DHT22;7101;51.600;7.310;2023-03-01T13:51:07;5.90;95.10
14053;DHT22;7101;51.600;7.310;2023-03-01T13:53:41;6.00;94.90
14053;DHT22;7101;51.600;7.310;2023-03-01T13:56:12;6.10;95.50
14053;DHT22;7101;51.600;7.310;2023-03-01T13:58:49;6.10;95.00
14053;DHT22;7101;51.600;7.310;2023-03-01T14:01:28;6.10;94.40
14053;DHT22;7101;51.600;7.310;2023-03-01T14:03:56;6.10;93.70
14053;DHT22;7101;51.600;7.310;2023-03-01T14:06:25;6.00;94.90
14053;DHT22;7101;51.600;7.310;2023-03-01T14:09:04;6.20;94.50
14053;DHT22;7101;51.600;7.310;2023-03-01T14:11:56;6.20;94.60
14053;DHT22;7101;51.600;7.310;2023-03-01T14:14:41;6.30;93.00
14053;DHT22;7101;51.600;7.310;2023-03-01T14:17:22;6.30;94.10
14053;DHT22;7101;51.600;7.310;2023-03-01T14:19:56;6.30;92.90
14053;DHT22;7101;51.600;7.310;2023-03-01T14:22:26;6.10;93.80
14053;DHT22;7101;51.600;7.310;2023-03-01T14:24:56;6.10;93.90
14053;DHT22;7101;51.600;7.310;2023-03-01T14:27:28;6.20;93.90
14053;DHT22;7101;51.600;7.310;2023-03-01T14:29:58;6.20;94.00
14053;DHT22;7101;51.600;7.310;2023-03-01T14:32:27;6.20;93.90
14053;DHT22;7101;51.600;7.310;2023-03-01T14:34:56;6.20;94.20
14053;DHT22;7101;51.600;7.310;2023-03-01T14:37:26;6.20;94.80
14053;DHT22;7101;51.600;7.310;2023-03-01T14:39:54;6.10;93.30
14053;DHT22;7101;51.600;7.310;2023-03-01T14:42:26;6.10;93.10
14053;DHT22;7101;51.600;7.310;2023-03-01T14:44:55;6.20;93.30
14053;DHT22;7101;51.600;7.310;2023-03-01T14:47:27;6.10;92.80
14053;DHT22;7101;51.600;7.310;2023-03-01T14:49:58;6.20;93.10
14053;DHT22;7101;51.600;7.310;2023-03-01T14:52:33;6.30;94.50
14053;DHT22;7101;51.600;7.310;2023-03-01T14:55:04;6.30;91.80
14053;DHT22;7101;51.600;7.310;2023-03-01T14:57:35;6.30;91.00
14053;DHT22;7101;51.600;7.310;2023-03-01T15:00:06;6.20;91.30
14053;DHT22;7101;51.600;7.310;2023-03-01T15:02:34;6.20;92.80
14053;DHT22;7101;51.600;7.310;2023-03-01T15:05:03;6.20;91.20
14053;DHT22;7101;51.600;7.310;2023-03-01T15:07:34;6.20;91.20
14053;DHT22;7101;51.600;7.310;2023-03-01T15:10:05;6.20;90.40
14053;DHT22;7101;51.600;7.310;2023-03-01T15:12:40;6.20;91.30
14053;DHT22;7101;51.600;7.310;2023-03-01T15:15:35;6.20;90.70
14053;DHT22;7101;51.600;7.310;2023-03-01T15:18:04;6.20;90.60
14053;DHT22;7101;51.600;7.310;2023-03-01T15:20:33;6.20;91.20
14053;DHT22;7101;51.600;7.310;2023-03-01T15:23:03;6.10;91.90
14053;DHT22;7101;51.600;7.310;2023-03-01T15:25:32;6.10;91.60
14053;DHT22;7101;51.600;7.310;2023-03-01T15:28:02;6.10;91.90
14053;DHT22;7101;51.600;7.310;2023-03-01T15:30:32;6.20;92.20
14053;DHT22;7101;51.600;7.310;2023-03-01T15:33:25;6.20;92.20
14053;DHT22;7101;51.600;7.310;2023-03-01T15:35:55;6.20;92.80
14053;DHT22;7101;51.600;7.310;2023-03-01T15:38:32;6.30;92.90
14053;DHT22;7101;51.600;7.310;2023-03-01T15:41:00;6.20;93.20
14053;DHT22;7101;51.600;7.310;2023-03-01T15:43:42;6.20;93.00
14053;DHT22;7101;51.600;7.310;2023-03-01T15:46:16;6.20;92.40
14053;DHT22;7101;51.600;7.310;2023-03-01T15:48:47;6.00;93.60
14053;DHT22;7101;51.600;7.310;2023-03-01T15:51:16;6.10;93.60
14053;DHT22;7101;51.600;7.310;2023-03-01T15:53:48;6.10;93.60
14053;DHT22;7101;51.600;7.310;2023-03-01T15:56:17;6.10;92.60
14053;DHT22;7101;51.600;7.310;2023-03-01T15:58:45;6.00;92.70
14053;DHT22;7101;51.600;7.310;2023-03-01T16:01:13;6.10;93.30
14053;DHT22;7101;51.600;7.310;2023-03-01T16:03:41;6.00;92.30
14053;DHT22;7101;51.600;7.310;2023-03-01T16:06:10;6.00;93.10
14053;DHT22;7101;51.600;7.310;2023-03-01T16:08:38;6.00;92.20
14053;DHT22;7101;51.600;7.310;2023-03-01T16:11:13;6.00;92.70
14053;DHT22;7101;51.600;7.310;2023-03-01T16:13:41;5.90;93.40
14053;DHT22;7101;51.600;7.310;2023-03-01T16:16:10;5.80;93.10
14053;DHT22;7101;51.600;7.310;2023-03-01T16:18:40;5.80;92.90
14053;DHT22;7101;51.600;7.310;2023-03-01T16:21:13;5.80;92.50
14053;DHT22;7101;51.600;7.310;2023-03-01T16:23:41;5.80;92.40
14053;DHT22;7101;51.600;7.310;2023-03-01T16:26:10;5.80;92.50
14053;DHT22;7101;51.600;7.310;2023-03-01T16:28:39;5.70;92.50
14053;DHT22;7101;51.600;7.310;2023-03-01T16:31:06;5.60;92.40
14053;DHT22;7101;51.600;7.310;2023-03-01T16:33:33;5.50;92.60
14053;DHT22;7101;51.600;7.310;2023-03-01T16:36:00;5.50;92.60
14053;DHT22;7101;51.600;7.310;2023-03-01T16:38:31;5.40;92.50
14053;DHT22;7101;51.600;7.310;2023-03-01T16:40:58;5.40;93.40
14053;DHT22;7101;51.600;7.310;2023-03-01T16:43:26;5.30;93.00
14053;DHT22;7101;51.600;7.310;2023-03-01T16:45:53;5.30;92.90